createdAt,value
2017-09-20T00:01:06.115Z,9.21
2017-09-20T00:03:34.455Z,9.21
2017-09-20T00:06:02.842Z,9.18
2017-09-20T00:08:31.160Z,9.18
2017-09-20T00:10:59.477Z,9.22
2017-09-20T00:13:27.779Z,9.22
2017-09-20T00:15:56.094Z,9.26
2017-09-20T00:18:24.396Z,9.21
2017-09-20T00:20:53.478Z,9.31
2017-09-20T00:23:22.550Z,9.38
2017-09-20T00:25:50.887Z,9.43
2017-09-20T00:28:19.203Z,9.50
2017-09-20T00:30:47.510Z,9.57
2017-09-20T00:33:16.605Z,9.69
2017-09-20T00:35:45.674Z,9.77
2017-09-20T00:38:13.994Z,9.91
2017-09-20T00:40:42.309Z,10.02
2017-09-20T00:43:10.632Z,10.13
2017-09-20T00:45:38.955Z,10.25
2017-09-20T00:48:07.287Z,10.25
2017-09-20T00:50:36.367Z,10.35
2017-09-20T00:53:04.703Z,10.38
2017-09-20T00:55:33.073Z,10.39
2017-09-20T00:58:01.381Z,10.37
2017-09-20T01:00:29.702Z,10.31
2017-09-20T01:02:58.787Z,10.23
2017-09-20T01:05:27.867Z,10.15
2017-09-20T01:07:56.183Z,10.13
2017-09-20T01:10:24.513Z,10.10
2017-09-20T01:12:52.831Z,10.13
2017-09-20T01:15:21.166Z,10.12
2017-09-20T01:17:49.503Z,10.14
2017-09-20T01:20:35.634Z,10.13
2017-09-20T01:23:21.653Z,10.15
2017-09-20T01:25:49.985Z,10.14
2017-09-20T01:28:18.300Z,10.13
2017-09-20T01:30:46.618Z,10.15
2017-09-20T01:33:14.941Z,10.15
2017-09-20T01:35:43.258Z,10.29
2017-09-20T01:38:12.357Z,10.36
2017-09-20T01:40:40.677Z,10.33
2017-09-20T01:43:09.011Z,10.39
2017-09-20T01:45:38.082Z,10.52
2017-09-20T01:48:06.451Z,10.60
2017-09-20T01:50:34.761Z,10.66
2017-09-20T01:53:03.838Z,10.68
2017-09-20T01:55:32.924Z,10.75
2017-09-20T01:58:01.254Z,10.82
2017-09-20T02:00:29.577Z,10.83
2017-09-20T02:02:57.894Z,10.85
2017-09-20T02:05:26.253Z,10.90
2017-09-20T02:07:55.328Z,10.97
2017-09-20T02:10:23.656Z,11.01
2017-09-20T02:12:51.976Z,11.07
2017-09-20T02:15:20.415Z,11.12
2017-09-20T02:17:48.739Z,11.17
2017-09-20T02:20:17.059Z,11.16
2017-09-20T02:22:45.382Z,11.22
2017-09-20T02:25:13.694Z,11.17
2017-09-20T02:27:42.785Z,11.13
2017-09-20T02:30:11.859Z,11.10
2017-09-20T02:32:40.183Z,11.09
2017-09-20T02:35:08.504Z,11.13
2017-09-20T02:37:36.818Z,11.12
2017-09-20T02:40:05.905Z,11.16
2017-09-20T02:42:35.042Z,11.17
2017-09-20T02:45:03.358Z,11.21
2017-09-20T02:47:31.693Z,11.25
2017-09-20T02:50:00.042Z,11.32
2017-09-20T02:52:29.114Z,11.29
2017-09-20T02:54:57.445Z,11.30
2017-09-20T02:57:25.762Z,11.25
2017-09-20T02:59:54.090Z,11.26
2017-09-20T03:02:22.402Z,11.18
2017-09-20T03:04:50.714Z,11.18
2017-09-20T03:07:19.789Z,11.19
2017-09-20T03:09:48.107Z,11.10
2017-09-20T03:12:16.433Z,11.02
2017-09-20T03:14:44.753Z,10.91
2017-09-20T03:17:13.833Z,10.91
2017-09-20T03:19:42.178Z,10.88
2017-09-20T03:22:10.479Z,10.94
2017-09-20T03:24:38.786Z,11.03
2017-09-20T03:27:07.871Z,11.14
2017-09-20T03:29:36.947Z,11.16
2017-09-20T03:32:05.265Z,11.19
2017-09-20T03:34:33.590Z,11.30
2017-09-20T03:37:02.643Z,11.24
2017-09-20T03:39:30.975Z,11.33
2017-09-20T03:41:59.293Z,11.42
2017-09-20T03:44:27.634Z,11.41
2017-09-20T03:46:56.667Z,11.40
2017-09-20T03:49:24.975Z,11.45
2017-09-20T03:51:53.317Z,11.44
2017-09-20T03:54:21.640Z,11.43
2017-09-20T03:56:49.949Z,11.45
2017-09-20T03:59:19.051Z,11.48
2017-09-20T04:01:48.126Z,11.44
2017-09-20T04:04:16.456Z,11.52
2017-09-20T04:06:44.762Z,11.54
2017-09-20T04:09:13.841Z,11.48
2017-09-20T04:11:42.161Z,11.50
2017-09-20T04:14:11.298Z,11.45
2017-09-20T04:16:39.612Z,11.40
2017-09-20T04:19:07.948Z,11.48
2017-09-20T04:21:36.288Z,11.43
2017-09-20T04:24:05.434Z,11.42
2017-09-20T04:26:33.746Z,11.36
2017-09-20T04:29:02.062Z,11.29
2017-09-20T04:31:30.393Z,11.17
2017-09-20T04:33:58.709Z,11.18
2017-09-20T04:36:27.790Z,11.14
2017-09-20T04:38:56.097Z,11.09
2017-09-20T04:41:24.427Z,10.98
2017-09-20T04:43:52.742Z,10.94
2017-09-20T04:46:21.103Z,10.87
2017-09-20T04:48:50.225Z,10.90
2017-09-20T04:51:18.540Z,10.87
2017-09-20T04:53:46.870Z,10.76
2017-09-20T04:56:15.957Z,10.75
2017-09-20T04:58:45.037Z,10.76
2017-09-20T05:01:13.345Z,10.77
2017-09-20T05:03:41.660Z,10.72
2017-09-20T05:06:09.978Z,10.75
2017-09-20T05:08:39.107Z,10.77
2017-09-20T05:11:07.420Z,10.83
2017-09-20T05:13:35.734Z,10.87
2017-09-20T05:16:04.822Z,11.00
2017-09-20T05:18:33.130Z,11.02
2017-09-20T05:21:01.463Z,11.18
2017-09-20T05:23:29.783Z,11.25
2017-09-20T05:25:58.106Z,11.44
2017-09-20T05:28:26.427Z,11.41
2017-09-20T05:30:54.780Z,11.50
2017-09-20T05:33:23.118Z,11.52
2017-09-20T05:35:51.426Z,11.66
2017-09-20T05:38:19.747Z,11.83
2017-09-20T05:40:48.090Z,12.13
2017-09-20T05:43:16.420Z,12.35
2017-09-20T05:45:44.742Z,12.63
2017-09-20T05:48:13.053Z,12.67
2017-09-20T05:50:41.378Z,12.81
2017-09-20T05:53:09.730Z,12.77
2017-09-20T05:55:38.043Z,12.67
2017-09-20T05:58:06.358Z,13.00
2017-09-20T06:00:35.447Z,12.90
2017-09-20T06:03:04.541Z,12.63
2017-09-20T06:05:33.621Z,12.75
2017-09-20T06:08:01.929Z,12.93
2017-09-20T06:10:30.249Z,12.93
2017-09-20T06:12:58.549Z,12.78
2017-09-20T06:15:26.884Z,12.60
2017-09-20T06:17:55.200Z,12.52
2017-09-20T06:20:23.538Z,12.45
2017-09-20T06:22:51.849Z,12.48
2017-09-20T06:25:20.162Z,12.37
2017-09-20T06:27:48.485Z,12.34
2017-09-20T06:30:16.794Z,12.29
2017-09-20T06:32:45.115Z,12.24
2017-09-20T06:35:13.428Z,11.87
2017-09-20T06:37:41.746Z,12.38
2017-09-20T06:40:10.822Z,12.25
2017-09-20T06:42:39.170Z,12.41
2017-09-20T06:45:07.474Z,12.34
2017-09-20T06:47:35.802Z,12.44
2017-09-20T06:50:04.119Z,12.39
2017-09-20T06:52:32.425Z,12.24
2017-09-20T06:55:01.515Z,12.30
2017-09-20T06:57:30.591Z,12.32
2017-09-20T06:59:58.909Z,12.23
2017-09-20T07:02:27.222Z,12.18
2017-09-20T07:04:55.542Z,12.08
2017-09-20T07:07:24.613Z,12.06
2017-09-20T07:09:52.925Z,11.98
2017-09-20T07:12:22.015Z,11.88
2017-09-20T07:14:51.089Z,11.89
2017-09-20T07:17:19.415Z,12.00
2017-09-20T07:19:47.725Z,12.00
2017-09-20T07:22:16.837Z,11.86
2017-09-20T07:24:45.151Z,11.84
2017-09-20T07:27:13.498Z,11.99
2017-09-20T07:29:42.573Z,12.30
2017-09-20T07:32:10.891Z,12.46
2017-09-20T07:34:39.978Z,12.84
2017-09-20T07:37:09.056Z,13.19
2017-09-20T07:39:37.380Z,13.42
2017-09-20T07:42:05.686Z,13.61
2017-09-20T07:44:34.002Z,13.77
2017-09-20T07:47:03.085Z,14.18
2017-09-20T07:49:31.407Z,14.29
2017-09-20T07:51:59.718Z,14.49
2017-09-20T07:54:28.030Z,14.64
2017-09-20T07:56:57.128Z,14.86
2017-09-20T07:59:26.207Z,14.79
2017-09-20T08:01:55.300Z,15.13
2017-09-20T08:04:23.635Z,15.56
2017-09-20T08:06:51.965Z,16.16
2017-09-20T08:09:21.037Z,16.20
2017-09-20T08:11:49.368Z,16.27
2017-09-20T08:14:17.686Z,15.93
2017-09-20T08:16:46.029Z,15.55
2017-09-20T08:19:14.342Z,15.22
2017-09-20T08:21:42.647Z,15.57
2017-09-20T08:24:10.974Z,15.62
2017-09-20T08:26:39.277Z,15.32
2017-09-20T08:29:07.603Z,15.64
2017-09-20T08:31:35.919Z,16.15
2017-09-20T08:34:04.235Z,16.12
2017-09-20T08:36:33.314Z,15.40
2017-09-20T08:39:01.662Z,15.67
2017-09-20T08:41:29.970Z,15.60
2017-09-20T08:43:58.289Z,16.07
2017-09-20T08:46:26.605Z,16.02
2017-09-20T08:48:54.910Z,15.75
2017-09-20T08:51:24.730Z,15.73
2017-09-20T08:53:53.148Z,16.23
2017-09-20T08:56:21.469Z,16.13
2017-09-20T08:58:49.775Z,16.64
2017-09-20T09:01:18.851Z,16.64
2017-09-20T09:03:47.159Z,15.89
2017-09-20T09:06:15.478Z,16.45
2017-09-20T09:08:43.782Z,16.07
2017-09-20T09:11:12.118Z,16.54
2017-09-20T09:13:40.434Z,16.73
2017-09-20T09:16:08.745Z,17.62
2017-09-20T09:18:37.058Z,17.52
2017-09-20T09:21:05.364Z,17.78
2017-09-20T09:23:33.688Z,16.55
2017-09-20T09:26:01.986Z,18.77
2017-09-20T09:28:30.298Z,20.37
2017-09-20T09:30:58.610Z,21.05
2017-09-20T09:33:26.923Z,19.83
2017-09-20T09:35:55.223Z,17.56
2017-09-20T09:38:23.555Z,16.87
2017-09-20T09:40:51.858Z,16.83
2017-09-20T09:43:20.166Z,15.91
2017-09-20T09:45:48.473Z,16.09
2017-09-20T09:48:16.770Z,17.29
2017-09-20T09:50:45.093Z,19.97
2017-09-20T09:53:14.507Z,18.07
2017-09-20T09:55:43.596Z,19.38
2017-09-20T09:58:11.901Z,19.80
2017-09-20T10:00:40.225Z,19.59
2017-09-20T10:03:08.531Z,17.65
2017-09-20T10:05:37.600Z,16.50
2017-09-20T10:08:05.938Z,14.66
2017-09-20T10:10:34.243Z,14.32
2017-09-20T10:13:02.565Z,13.88
2017-09-20T10:15:31.635Z,14.11
2017-09-20T10:17:59.950Z,14.33
2017-09-20T10:20:28.275Z,14.51
2017-09-20T10:22:56.583Z,14.74
2017-09-20T10:25:24.883Z,15.17
2017-09-20T10:27:53.190Z,15.40
2017-09-20T10:30:21.594Z,16.00
2017-09-20T10:32:49.926Z,16.92
2017-09-20T10:35:18.256Z,17.48
2017-09-20T10:37:46.581Z,18.54
2017-09-20T10:40:14.886Z,20.75
2017-09-20T10:42:43.189Z,22.31
2017-09-20T10:45:11.506Z,23.35
2017-09-20T10:47:39.814Z,20.32
2017-09-20T10:50:08.130Z,18.70
2017-09-20T10:52:36.450Z,17.55
2017-09-20T10:55:04.758Z,16.77
2017-09-20T10:57:33.076Z,16.52
2017-09-20T11:00:02.199Z,16.70
2017-09-20T11:02:30.498Z,15.90
2017-09-20T11:04:58.798Z,15.90
2017-09-20T11:07:27.108Z,18.03
2017-09-20T11:09:56.196Z,18.35
2017-09-20T11:12:32.408Z,17.22
2017-09-20T11:17:28.297Z,16.42
2017-09-20T11:19:57.362Z,17.26
2017-09-20T11:22:25.734Z,17.14
2017-09-20T11:24:54.043Z,17.16
2017-09-20T11:27:23.110Z,17.31
2017-09-20T11:29:51.461Z,17.57
2017-09-20T11:32:19.772Z,17.63
2017-09-20T11:34:52.229Z,18.30
2017-09-20T11:37:20.542Z,18.66
2017-09-20T11:39:49.628Z,18.67
2017-09-20T11:42:17.945Z,18.29
2017-09-20T11:44:46.258Z,18.07
2017-09-20T11:47:14.569Z,17.80
2017-09-20T11:49:43.658Z,18.07
2017-09-20T11:52:11.958Z,18.13
2017-09-20T11:54:41.056Z,17.94
2017-09-20T11:57:10.130Z,17.76
2017-09-20T11:59:39.205Z,17.62
2017-09-20T12:02:07.521Z,17.85
2017-09-20T12:04:36.601Z,17.74
2017-09-20T12:07:05.677Z,18.03
2017-09-20T12:09:33.978Z,17.87
2017-09-20T12:12:03.066Z,18.26
2017-09-20T12:14:31.380Z,17.66
2017-09-20T12:16:59.716Z,17.89
2017-09-20T12:19:28.019Z,17.73
2017-09-20T12:21:56.360Z,18.37
2017-09-20T12:24:24.666Z,18.41
2017-09-20T12:26:53.737Z,18.78
2017-09-20T12:29:22.057Z,18.81
2017-09-20T12:31:50.362Z,18.78
2017-09-20T12:34:18.671Z,19.65
2017-09-20T12:36:46.977Z,20.23
2017-09-20T12:39:15.301Z,19.63
2017-09-20T12:41:43.601Z,19.39
2017-09-20T12:44:11.913Z,18.25
2017-09-20T12:46:40.204Z,17.09
2017-09-20T12:49:08.557Z,17.03
2017-09-20T12:51:37.626Z,16.93
2017-09-20T12:54:05.927Z,16.66
2017-09-20T12:56:35.018Z,16.29
2017-09-20T12:59:04.092Z,16.04
2017-09-20T13:01:32.393Z,15.90
2017-09-20T13:04:01.464Z,15.84
2017-09-20T13:06:29.787Z,15.62
2017-09-20T13:08:58.081Z,15.56
2017-09-20T13:11:26.409Z,15.52
2017-09-20T13:13:54.714Z,15.43
2017-09-20T13:16:23.012Z,15.42
2017-09-20T13:18:51.333Z,15.45
2017-09-20T13:21:19.628Z,15.54
2017-09-20T13:23:48.704Z,15.58
2017-09-20T13:26:17.001Z,15.57
2017-09-20T13:28:46.078Z,15.83
2017-09-20T13:31:14.371Z,15.75
2017-09-20T13:33:43.442Z,15.77
2017-09-20T13:36:11.780Z,15.89
2017-09-20T13:38:40.101Z,15.83
2017-09-20T13:41:08.409Z,15.77
2017-09-20T13:43:36.709Z,15.81
2017-09-20T13:46:05.014Z,15.99
2017-09-20T13:48:33.320Z,16.01
2017-09-20T13:51:02.397Z,16.00
2017-09-20T13:53:30.691Z,16.11
2017-09-20T13:55:58.992Z,15.79
2017-09-20T13:58:27.286Z,16.10
2017-09-20T14:00:55.608Z,16.16
2017-09-20T14:03:23.905Z,16.05
2017-09-20T14:05:52.969Z,16.14
2017-09-20T14:08:21.264Z,15.98
2017-09-20T14:10:49.573Z,16.02
2017-09-20T14:13:17.886Z,16.23
2017-09-20T14:15:47.062Z,16.46
2017-09-20T14:18:15.372Z,16.28
2017-09-20T14:20:43.673Z,16.42
2017-09-20T14:23:11.997Z,16.32
2017-09-20T14:25:40.289Z,16.48
2017-09-20T14:28:08.587Z,16.43
2017-09-20T14:30:36.889Z,16.71
2017-09-20T14:33:05.964Z,16.51
2017-09-20T14:35:34.275Z,16.62
2017-09-20T14:38:02.619Z,16.60
2017-09-20T14:40:30.924Z,16.53
2017-09-20T14:42:59.995Z,16.53
2017-09-20T14:45:28.300Z,16.58
2017-09-20T14:47:57.368Z,16.30
2017-09-20T14:50:25.684Z,16.27
2017-09-20T14:52:53.980Z,16.49
2017-09-20T14:55:22.292Z,16.32
2017-09-20T14:57:50.601Z,16.33
2017-09-20T15:00:19.706Z,16.63
2017-09-20T15:02:48.023Z,16.58
2017-09-20T15:05:16.333Z,16.80
2017-09-20T15:07:44.644Z,16.68
2017-09-20T15:10:12.958Z,16.87
2017-09-20T15:12:41.269Z,16.74
2017-09-20T15:15:10.340Z,16.49
2017-09-20T15:17:38.641Z,16.48
2017-09-20T15:20:07.702Z,16.52
2017-09-20T15:22:36.029Z,16.36
2017-09-20T15:25:05.085Z,16.41
2017-09-20T15:27:33.396Z,16.30
2017-09-20T15:30:02.477Z,16.24
2017-09-20T15:32:30.768Z,16.54
2017-09-20T15:34:59.846Z,16.40
2017-09-20T15:37:28.146Z,16.42
2017-09-20T15:39:56.465Z,16.51
2017-09-20T15:42:24.756Z,16.27
2017-09-20T15:44:53.057Z,16.22
2017-09-20T15:47:21.397Z,16.23
2017-09-20T15:49:49.701Z,16.25
2017-09-20T15:52:17.989Z,16.09
2017-09-20T15:54:46.325Z,16.11
2017-09-20T15:57:14.630Z,16.05
2017-09-20T15:59:42.932Z,16.11
2017-09-20T16:02:12.002Z,16.16
2017-09-20T16:04:40.296Z,16.17
2017-09-20T16:07:09.381Z,16.08
2017-09-20T16:09:37.678Z,15.78
2017-09-20T16:12:06.009Z,15.68
2017-09-20T16:14:35.087Z,15.70
2017-09-20T16:17:03.458Z,15.64
2017-09-20T16:19:31.761Z,15.53
2017-09-20T16:22:00.089Z,15.43
2017-09-20T16:24:28.403Z,15.26
2017-09-20T16:26:56.709Z,15.20
2017-09-20T16:29:25.023Z,15.23
2017-09-20T16:31:53.324Z,15.24
2017-09-20T16:34:21.641Z,15.24
2017-09-20T16:36:49.942Z,15.23
2017-09-20T16:39:19.018Z,15.13
2017-09-20T16:41:47.321Z,15.19
2017-09-20T16:44:16.490Z,15.10
2017-09-20T16:46:44.785Z,15.07
2017-09-20T16:49:13.860Z,15.00
2017-09-20T16:51:42.156Z,15.00
2017-09-20T16:54:11.261Z,14.93
2017-09-20T16:56:40.328Z,14.90
2017-09-20T16:59:08.633Z,14.92
2017-09-20T17:01:37.701Z,14.84
2017-09-20T17:04:06.001Z,14.79
2017-09-20T17:06:35.072Z,14.75
2017-09-20T17:09:03.369Z,14.68
2017-09-20T17:11:32.441Z,14.66
2017-09-20T17:14:00.742Z,14.55
2017-09-20T17:16:29.840Z,14.46
2017-09-20T17:18:58.910Z,14.22
2017-09-20T17:21:27.250Z,14.27
2017-09-20T17:23:55.557Z,14.26
2017-09-20T17:26:23.856Z,14.25
2017-09-20T17:28:52.949Z,14.17
2017-09-20T17:31:22.046Z,14.08
2017-09-20T17:33:51.395Z,14.07
2017-09-20T17:36:19.729Z,14.07
2017-09-20T17:38:48.809Z,14.02
2017-09-20T17:41:17.115Z,13.96
2017-09-20T17:43:46.221Z,13.91
2017-09-20T17:46:14.533Z,13.95
2017-09-20T17:48:42.836Z,13.88
2017-09-20T17:51:11.152Z,13.91
2017-09-20T17:53:39.461Z,13.90
2017-09-20T17:56:07.781Z,13.86
2017-09-20T17:58:36.860Z,13.92
2017-09-20T18:01:05.180Z,13.85
2017-09-20T18:03:33.493Z,13.87
2017-09-20T18:06:01.802Z,13.80
2017-09-20T18:08:30.106Z,13.88
2017-09-20T18:10:58.440Z,13.84
2017-09-20T18:13:26.737Z,13.88
2017-09-20T18:15:55.053Z,13.84
2017-09-20T18:18:23.377Z,13.69
2017-09-20T18:20:51.675Z,13.68
2017-09-20T18:23:20.752Z,13.71
2017-09-20T18:25:49.080Z,13.71
2017-09-20T18:28:17.389Z,13.71
2017-09-20T18:30:45.685Z,13.72
2017-09-20T18:33:14.012Z,13.76
2017-09-20T18:35:42.353Z,13.70
2017-09-20T18:38:10.664Z,13.66
2017-09-20T18:40:38.965Z,13.68
2017-09-20T18:43:07.347Z,13.66
2017-09-20T18:45:35.656Z,13.58
2017-09-20T18:48:03.975Z,13.63
2017-09-20T18:50:32.294Z,13.67
2017-09-20T18:53:00.604Z,13.71
2017-09-20T18:55:29.676Z,13.66
2017-09-20T18:57:57.998Z,13.63
2017-09-20T19:00:26.315Z,13.71
2017-09-20T19:02:54.673Z,13.75
2017-09-20T19:05:22.976Z,13.82
2017-09-20T19:07:51.460Z,13.79
2017-09-20T19:10:19.815Z,13.80
2017-09-20T19:12:48.173Z,13.79
2017-09-20T19:15:16.594Z,13.71
2017-09-20T19:17:44.907Z,13.68
2017-09-20T19:20:13.985Z,13.74
2017-09-20T19:22:42.293Z,13.72
2017-09-20T19:25:10.605Z,13.79
2017-09-20T19:27:38.917Z,13.78
2017-09-20T19:30:07.277Z,13.81
2017-09-20T19:32:35.653Z,13.72
2017-09-20T19:35:04.733Z,13.77
2017-09-20T19:37:33.045Z,13.72
2017-09-20T19:40:01.351Z,13.74
2017-09-20T19:42:29.672Z,13.74
2017-09-20T19:44:58.747Z,13.74
2017-09-20T19:47:27.068Z,13.75
2017-09-20T19:49:55.376Z,13.79
2017-09-20T19:52:23.690Z,13.75
2017-09-20T19:54:52.000Z,13.85
2017-09-20T19:57:20.312Z,13.76
2017-09-20T19:59:48.614Z,13.69
2017-09-20T20:02:17.000Z,13.77
2017-09-20T20:04:46.089Z,13.72
2017-09-20T20:07:14.596Z,13.76
2017-09-20T20:09:42.975Z,13.83
2017-09-20T20:12:11.514Z,13.85
2017-09-20T20:14:40.038Z,13.78
2017-09-20T20:17:08.396Z,13.75
2017-09-20T20:19:36.795Z,13.65
2017-09-20T20:22:05.306Z,13.68
2017-09-20T20:24:34.602Z,13.60
2017-09-20T20:27:03.096Z,13.69
2017-09-20T20:29:32.371Z,13.66
2017-09-20T20:32:00.881Z,13.63
2017-09-20T20:34:29.279Z,13.57
2017-09-20T20:36:57.667Z,13.45
2017-09-20T20:39:26.043Z,13.38
2017-09-20T20:41:54.569Z,13.31
2017-09-20T20:44:23.093Z,13.18
2017-09-20T20:46:51.468Z,13.09
2017-09-20T20:49:19.985Z,13.04
2017-09-20T20:51:48.535Z,13.03
2017-09-20T20:54:16.896Z,13.07
2017-09-20T20:56:46.094Z,13.10
2017-09-20T20:59:15.231Z,13.09
2017-09-20T21:01:43.741Z,13.15
2017-09-20T21:04:12.288Z,13.19
2017-09-20T21:06:40.654Z,13.20
2017-09-20T21:09:09.035Z,13.24
2017-09-20T21:11:37.529Z,13.26
2017-09-20T21:14:05.905Z,13.27
2017-09-20T21:16:34.261Z,13.23
2017-09-20T21:19:02.677Z,13.24
2017-09-20T21:21:30.982Z,13.26
2017-09-20T21:23:59.288Z,13.22
2017-09-20T21:26:27.814Z,13.31
2017-09-20T21:28:56.128Z,13.33
2017-09-20T21:31:25.273Z,13.39
2017-09-20T21:33:53.645Z,13.38
2017-09-20T21:36:22.026Z,13.30
2017-09-20T21:38:50.330Z,13.35
2017-09-20T21:41:18.718Z,13.26
2017-09-20T21:43:47.033Z,13.29
2017-09-20T21:46:16.181Z,13.20
2017-09-20T21:48:44.539Z,13.17
2017-09-20T21:51:12.890Z,13.14
2017-09-20T21:53:41.977Z,13.12
2017-09-20T21:56:11.057Z,13.11
2017-09-20T21:58:39.394Z,13.14
2017-09-20T22:01:07.720Z,13.14
2017-09-20T22:03:36.822Z,13.12
2017-09-20T22:06:05.901Z,13.12
2017-09-20T22:08:34.237Z,13.13
2017-09-20T22:11:02.541Z,13.09
2017-09-20T22:13:30.882Z,13.07
2017-09-20T22:16:16.966Z,13.12
2017-09-20T22:19:03.063Z,13.15
2017-09-20T22:21:49.153Z,13.03
2017-09-20T22:24:35.268Z,13.07
2017-09-20T22:27:03.586Z,13.12
2017-09-20T22:29:31.899Z,13.10
2017-09-20T22:32:00.221Z,13.07
2017-09-20T22:34:28.548Z,12.98
2017-09-20T22:36:57.640Z,12.85
2017-09-20T22:39:25.950Z,12.80
2017-09-20T22:41:54.273Z,12.68
2017-09-20T22:44:22.573Z,12.64
2017-09-20T22:46:50.889Z,12.58
2017-09-20T22:49:19.211Z,12.57
2017-09-20T22:51:48.305Z,12.47
2017-09-20T22:54:16.618Z,12.43
2017-09-20T22:56:44.926Z,12.45
2017-09-20T22:59:13.254Z,12.52
2017-09-20T23:01:42.329Z,12.53
2017-09-20T23:04:10.648Z,12.51
2017-09-20T23:06:38.958Z,12.58
2017-09-20T23:09:07.278Z,12.57
2017-09-20T23:11:35.607Z,12.63
2017-09-20T23:14:03.942Z,12.64
2017-09-20T23:16:32.274Z,12.67
2017-09-20T23:19:00.616Z,12.60
2017-09-20T23:21:28.923Z,12.63
2017-09-20T23:23:57.244Z,12.70
2017-09-20T23:26:26.327Z,12.77
2017-09-20T23:28:55.415Z,12.72
2017-09-20T23:31:23.737Z,12.75
2017-09-20T23:33:52.049Z,12.69
2017-09-20T23:36:20.386Z,12.62
2017-09-20T23:38:48.778Z,12.68
2017-09-20T23:41:17.100Z,12.70
2017-09-20T23:43:45.420Z,12.73
2017-09-20T23:46:13.760Z,12.69
2017-09-20T23:48:42.079Z,12.66
2017-09-20T23:51:10.396Z,12.69
2017-09-20T23:53:38.719Z,12.62
2017-09-20T23:56:07.828Z,12.63
2017-09-20T23:58:36.142Z,12.66
